createdAt,value
2019-03-22T00:00:00.770Z,30.73
2019-03-22T00:02:35.386Z,33.97
2019-03-22T00:05:11.683Z,33.10
2019-03-22T00:07:48.518Z,31.90
2019-03-22T00:10:23.483Z,31.63
2019-03-22T00:12:58.306Z,32.10
2019-03-22T00:15:32.912Z,32.30
2019-03-22T00:18:07.515Z,31.00
2019-03-22T00:20:42.102Z,31.03
2019-03-22T00:23:18.243Z,28.17
2019-03-22T00:25:53.708Z,31.50
2019-03-22T00:28:29.818Z,32.53
2019-03-22T00:31:04.311Z,34.57
2019-03-22T00:33:38.791Z,30.90
2019-03-22T00:36:13.347Z,29.60
2019-03-22T00:38:47.871Z,33.57
2019-03-22T00:41:22.323Z,32.60
2019-03-22T00:43:56.962Z,36.00
2019-03-22T00:46:31.433Z,35.03
2019-03-22T00:49:06.370Z,36.27
2019-03-22T00:51:41.257Z,37.33
2019-03-22T00:54:17.295Z,37.03
2019-03-22T00:56:51.892Z,37.37
2019-03-22T00:59:26.832Z,29.33
2019-03-22T01:02:01.551Z,25.60
2019-03-22T01:04:36.448Z,23.10
2019-03-22T01:07:11.340Z,22.73
2019-03-22T01:09:45.858Z,24.57
2019-03-22T01:12:20.569Z,24.20
2019-03-22T01:14:55.538Z,24.37
2019-03-22T01:17:31.814Z,24.77
2019-03-22T01:20:06.980Z,24.50
2019-03-22T01:22:41.577Z,24.37
2019-03-22T01:25:17.897Z,25.90
2019-03-22T01:27:52.793Z,27.77
2019-03-22T01:30:27.232Z,27.27
2019-03-22T01:33:01.956Z,26.70
2019-03-22T01:35:40.047Z,26.90
2019-03-22T01:38:14.722Z,26.10
2019-03-22T01:40:49.239Z,26.60
2019-03-22T01:43:24.040Z,29.27
2019-03-22T01:45:58.711Z,31.60
2019-03-22T01:48:33.254Z,35.90
2019-03-22T01:51:09.538Z,39.17
2019-03-22T01:53:45.861Z,38.80
2019-03-22T01:56:21.808Z,39.53
2019-03-22T01:58:56.502Z,36.10
2019-03-22T02:01:31.709Z,35.40
2019-03-22T02:04:06.192Z,41.77
2019-03-22T02:06:40.785Z,48.73
2019-03-22T02:09:17.095Z,45.90
2019-03-22T02:11:51.718Z,47.80
2019-03-22T02:14:26.241Z,36.40
2019-03-22T02:17:02.320Z,36.10
2019-03-22T02:19:37.334Z,31.70
2019-03-22T02:22:12.040Z,23.23
2019-03-22T02:24:46.626Z,22.43
2019-03-22T02:27:21.215Z,26.40
2019-03-22T02:29:56.060Z,27.60
2019-03-22T02:32:30.630Z,28.10
2019-03-22T02:35:07.515Z,25.87
2019-03-22T02:37:42.179Z,27.93
2019-03-22T02:40:17.311Z,28.73
2019-03-22T02:42:52.039Z,30.40
2019-03-22T02:45:26.889Z,29.10
2019-03-22T02:48:31.617Z,27.23
2019-03-22T02:51:07.854Z,30.77
2019-03-22T02:53:42.477Z,28.40
2019-03-22T02:56:18.026Z,29.40
2019-03-22T02:58:52.658Z,30.40
2019-03-22T03:01:27.284Z,27.97
2019-03-22T03:04:01.985Z,30.93
2019-03-22T03:06:36.803Z,32.43
2019-03-22T03:09:11.521Z,27.40
2019-03-22T03:11:46.102Z,25.50
2019-03-22T03:14:22.421Z,30.33
2019-03-22T03:16:56.978Z,34.20
2019-03-22T03:19:31.567Z,37.20
2019-03-22T03:22:07.781Z,41.13
2019-03-22T03:24:42.381Z,37.67
2019-03-22T03:27:16.933Z,43.63
2019-03-22T03:29:53.286Z,40.20
2019-03-22T03:32:27.782Z,39.17
2019-03-22T03:35:02.383Z,49.07
2019-03-22T03:37:38.510Z,42.57
2019-03-22T03:40:13.877Z,44.60
2019-03-22T03:42:48.375Z,42.80
2019-03-22T03:45:37.972Z,37.60
2019-03-22T03:48:14.428Z,34.33
2019-03-22T03:50:50.343Z,36.90
2019-03-22T03:53:25.006Z,36.47
2019-03-22T03:55:59.861Z,40.93
2019-03-22T03:58:34.455Z,40.50
2019-03-22T04:01:09.125Z,42.57
2019-03-22T04:03:43.642Z,41.50
2019-03-22T04:06:18.229Z,40.83
2019-03-22T04:08:54.378Z,41.30
2019-03-22T04:11:28.889Z,42.37
2019-03-22T04:14:03.767Z,33.53
2019-03-22T04:16:39.953Z,30.93
2019-03-22T04:19:14.503Z,30.73
2019-03-22T04:21:55.522Z,29.10
2019-03-22T04:24:30.100Z,29.00
2019-03-22T04:27:04.664Z,28.07
2019-03-22T04:29:39.215Z,29.60
2019-03-22T04:32:16.730Z,29.70
2019-03-22T04:34:51.567Z,27.23
2019-03-22T04:37:26.116Z,28.67
2019-03-22T04:40:00.751Z,28.40
2019-03-22T04:42:35.414Z,29.20
2019-03-22T04:45:10.104Z,32.10
2019-03-22T04:48:04.448Z,32.03
2019-03-22T04:50:43.798Z,29.23
2019-03-22T04:53:23.669Z,31.20
2019-03-22T04:56:04.234Z,31.30
2019-03-22T04:58:42.227Z,26.37
2019-03-22T05:01:19.425Z,23.13
2019-03-22T05:03:58.775Z,23.80
2019-03-22T05:06:34.815Z,26.50
2019-03-22T05:09:14.584Z,22.87
2019-03-22T05:11:53.779Z,29.47
2019-03-22T05:14:30.167Z,24.93
2019-03-22T05:17:06.331Z,23.87
2019-03-22T05:19:45.953Z,25.30
2019-03-22T05:22:26.820Z,24.33
2019-03-22T05:25:04.169Z,24.10
2019-03-22T05:27:43.642Z,23.97
2019-03-22T05:31:29.550Z,23.97
2019-03-22T05:34:06.903Z,23.20
2019-03-22T05:36:41.640Z,22.90
2019-03-22T05:39:17.583Z,23.60
2019-03-22T05:41:52.094Z,25.83
2019-03-22T05:44:27.973Z,26.13
2019-03-22T05:47:21.534Z,22.63
2019-03-22T05:49:55.949Z,22.27
2019-03-22T05:52:30.502Z,24.67
2019-03-22T05:55:08.464Z,26.03
2019-03-22T05:57:43.494Z,27.77
2019-03-22T06:00:18.732Z,26.17
2019-03-22T06:02:53.153Z,25.07
2019-03-22T06:05:28.210Z,24.13
2019-03-22T06:08:02.791Z,22.90
2019-03-22T06:10:37.293Z,21.80
2019-03-22T06:13:12.414Z,20.83
2019-03-22T06:15:47.106Z,22.43
2019-03-22T06:18:21.834Z,23.40
2019-03-22T06:20:56.369Z,22.70
2019-03-22T06:23:31.091Z,22.10
2019-03-22T06:26:05.631Z,24.30
2019-03-22T06:28:40.208Z,22.47
2019-03-22T06:31:14.766Z,24.23
2019-03-22T06:33:49.238Z,23.10
2019-03-22T06:36:24.224Z,23.10
2019-03-22T06:38:58.898Z,19.93
2019-03-22T06:41:33.368Z,21.47
2019-03-22T06:44:08.004Z,90.23
2019-03-22T06:46:42.380Z,60.07
2019-03-22T06:49:17.024Z,31.70
2019-03-22T06:51:51.835Z,27.70
2019-03-22T06:54:31.755Z,31.10
2019-03-22T06:57:03.862Z,22.37
2019-03-22T06:59:38.829Z,20.13
2019-03-22T07:02:13.557Z,20.53
2019-03-22T07:04:48.181Z,21.07
2019-03-22T07:07:27.209Z,19.20
2019-03-22T07:10:01.818Z,19.40
2019-03-22T07:12:36.479Z,20.13
2019-03-22T07:15:11.414Z,19.40
2019-03-22T07:17:47.453Z,20.40
2019-03-22T07:20:22.185Z,20.03
2019-03-22T07:22:56.810Z,31.93
2019-03-22T07:25:31.444Z,29.93
2019-03-22T07:28:06.167Z,19.00
2019-03-22T07:30:40.897Z,18.77
2019-03-22T07:33:17.366Z,19.13
2019-03-22T07:35:51.986Z,19.40
2019-03-22T07:38:26.621Z,21.70
2019-03-22T07:41:01.195Z,18.50
2019-03-22T07:43:35.833Z,19.00
2019-03-22T07:46:10.483Z,17.30
2019-03-22T07:48:45.851Z,18.60
2019-03-22T07:51:20.645Z,19.63
2019-03-22T07:53:55.358Z,20.53
2019-03-22T07:56:31.694Z,21.70
2019-03-22T07:59:06.506Z,22.77
2019-03-22T08:01:41.253Z,25.73
2019-03-22T08:04:15.878Z,28.37
2019-03-22T08:06:51.014Z,26.83
2019-03-22T08:09:25.949Z,26.83
2019-03-22T08:12:01.993Z,25.80
2019-03-22T08:14:37.594Z,28.20
2019-03-22T08:17:16.665Z,26.20
2019-03-22T08:19:51.804Z,30.60
2019-03-22T08:22:26.442Z,33.47
2019-03-22T08:25:01.016Z,35.33
2019-03-22T08:27:35.787Z,33.93
2019-03-22T08:30:10.896Z,35.93
2019-03-22T08:32:45.614Z,31.83
2019-03-22T08:35:22.160Z,30.03
2019-03-22T08:37:57.388Z,30.27
2019-03-22T08:40:32.059Z,32.40
2019-03-22T08:43:07.035Z,32.40
2019-03-22T08:45:41.796Z,36.00
2019-03-22T08:48:16.614Z,33.63
2019-03-22T08:50:51.273Z,30.77
2019-03-22T08:53:25.867Z,30.93
2019-03-22T08:56:01.984Z,31.57
2019-03-22T08:58:36.699Z,30.80
2019-03-22T09:01:11.366Z,31.63
2019-03-22T09:03:46.150Z,34.80
2019-03-22T09:06:21.126Z,35.47
2019-03-22T09:08:57.359Z,36.10
2019-03-22T09:11:31.933Z,34.63
2019-03-22T09:14:10.125Z,34.03
2019-03-22T09:16:47.726Z,36.20
2019-03-22T09:19:22.276Z,36.30
2019-03-22T09:22:00.181Z,36.60
2019-03-22T09:24:39.329Z,38.30
2019-03-22T09:27:11.367Z,35.60
2019-03-22T09:29:47.397Z,36.67
2019-03-22T09:32:22.427Z,37.37
2019-03-22T09:34:59.707Z,38.13
2019-03-22T09:37:33.384Z,36.50
2019-03-22T09:40:08.806Z,37.37
2019-03-22T09:42:43.529Z,36.40
2019-03-22T09:45:20.288Z,37.73
2019-03-22T09:47:55.120Z,37.40
2019-03-22T09:50:29.901Z,40.27
2019-03-22T09:53:04.493Z,39.43
2019-03-22T09:55:39.593Z,38.33
2019-03-22T09:58:14.682Z,37.93
2019-03-22T10:00:49.423Z,39.40
2019-03-22T10:03:24.066Z,39.40
2019-03-22T10:05:58.681Z,41.47
2019-03-22T10:08:33.316Z,40.60
2019-03-22T10:11:09.711Z,40.10
2019-03-22T10:13:44.532Z,39.97
2019-03-22T10:16:19.194Z,39.20
2019-03-22T10:18:54.257Z,39.27
2019-03-22T10:21:29.950Z,39.73
2019-03-22T10:24:04.583Z,39.67
2019-03-22T10:26:39.245Z,39.80
2019-03-22T10:29:14.024Z,40.50
2019-03-22T10:31:48.711Z,39.90
2019-03-22T10:34:25.194Z,40.67
2019-03-22T10:36:59.803Z,40.70
2019-03-22T10:39:34.469Z,39.50
2019-03-22T10:42:09.572Z,42.10
2019-03-22T10:44:44.247Z,38.83
2019-03-22T10:47:19.049Z,38.07
2019-03-22T10:49:53.742Z,40.70
2019-03-22T10:52:28.403Z,38.90
2019-03-22T10:55:23.140Z,39.20
2019-03-22T10:57:40.657Z,40.43
2019-03-22T11:00:18.532Z,41.47
2019-03-22T11:02:53.082Z,41.00
2019-03-22T11:05:29.228Z,39.80
2019-03-22T11:08:04.014Z,38.90
2019-03-22T11:10:40.119Z,39.10
2019-03-22T11:13:14.592Z,39.40
2019-03-22T11:15:49.186Z,39.60
2019-03-22T11:18:23.753Z,39.60
2019-03-22T11:21:05.153Z,40.23
2019-03-22T11:23:35.942Z,36.37
2019-03-22T11:26:10.913Z,37.93
2019-03-22T11:28:47.028Z,37.77
2019-03-22T11:31:28.318Z,36.07
2019-03-22T11:33:57.917Z,36.70
2019-03-22T11:36:32.613Z,34.50
2019-03-22T11:39:15.730Z,34.77
2019-03-22T11:41:48.956Z,38.53
2019-03-22T11:44:23.492Z,37.40
2019-03-22T11:46:58.829Z,36.30
2019-03-22T11:49:33.490Z,33.27
2019-03-22T11:52:08.448Z,30.37
2019-03-22T11:54:44.880Z,35.90
2019-03-22T11:57:21.397Z,40.63
2019-03-22T11:59:56.365Z,38.07
2019-03-22T12:02:30.984Z,36.67
2019-03-22T12:05:06.963Z,37.80
2019-03-22T12:07:41.848Z,36.13
2019-03-22T12:10:18.027Z,37.03
2019-03-22T12:12:52.782Z,37.47
2019-03-22T12:15:28.704Z,36.43
2019-03-22T12:18:05.194Z,35.90
2019-03-22T12:20:39.816Z,30.47
2019-03-22T12:23:14.547Z,32.70
2019-03-22T12:25:49.515Z,30.83
2019-03-22T12:28:23.952Z,27.30
2019-03-22T12:30:58.520Z,27.70
2019-03-22T12:33:33.073Z,30.83
2019-03-22T12:36:07.537Z,29.03
2019-03-22T12:38:42.620Z,31.70
2019-03-22T12:41:18.164Z,33.93
2019-03-22T12:43:52.724Z,29.97
2019-03-22T12:46:27.193Z,27.70
2019-03-22T12:49:03.490Z,28.63
2019-03-22T12:51:38.206Z,30.63
2019-03-22T12:54:14.249Z,29.90
2019-03-22T12:56:48.908Z,30.03
2019-03-22T12:59:23.445Z,27.63
2019-03-22T13:02:00.964Z,29.37
2019-03-22T13:04:35.742Z,28.90
2019-03-22T13:07:10.449Z,29.50
2019-03-22T13:09:45.199Z,28.23
2019-03-22T13:12:19.778Z,28.30
2019-03-22T13:14:54.351Z,27.67
2019-03-22T13:17:29.156Z,28.90
2019-03-22T13:20:04.005Z,25.30
2019-03-22T13:22:38.532Z,22.60
2019-03-22T13:25:13.359Z,23.97
2019-03-22T13:27:49.539Z,22.23
2019-03-22T13:30:49.638Z,22.10
2019-03-22T13:33:26.011Z,17.30
2019-03-22T13:36:00.604Z,19.33
2019-03-22T13:38:35.871Z,20.63
2019-03-22T13:41:10.376Z,21.50
2019-03-22T13:43:44.975Z,20.67
2019-03-22T13:46:19.573Z,20.37
2019-03-22T13:48:54.480Z,22.70
2019-03-22T13:51:28.996Z,21.57
2019-03-22T13:54:05.369Z,22.37
2019-03-22T13:56:39.974Z,23.97
2019-03-22T13:59:14.590Z,27.17
2019-03-22T14:01:49.185Z,26.50
2019-03-22T14:04:23.776Z,26.60
2019-03-22T14:06:58.547Z,27.53
2019-03-22T14:09:33.396Z,25.50
2019-03-22T14:12:07.963Z,26.50
2019-03-22T14:14:44.327Z,26.60
2019-03-22T14:17:18.932Z,26.27
2019-03-22T14:19:53.878Z,25.10
2019-03-22T14:22:28.538Z,23.73
2019-03-22T14:25:05.425Z,24.07
2019-03-22T14:27:40.370Z,22.90
2019-03-22T14:30:15.669Z,21.10
2019-03-22T14:32:50.401Z,22.40
2019-03-22T14:35:25.004Z,21.37
2019-03-22T14:37:59.692Z,22.63
2019-03-22T14:40:34.284Z,22.57
2019-03-22T14:43:08.774Z,21.33
2019-03-22T14:45:43.475Z,23.70
2019-03-22T14:48:17.951Z,26.30
2019-03-22T14:50:53.050Z,24.00
2019-03-22T14:53:28.982Z,25.83
2019-03-22T14:56:04.022Z,25.10
2019-03-22T14:58:38.731Z,25.77
2019-03-22T15:01:13.583Z,26.37
2019-03-22T15:03:48.040Z,25.23
2019-03-22T15:06:22.821Z,26.33
2019-03-22T15:08:57.212Z,27.40
2019-03-22T15:11:32.254Z,27.60
2019-03-22T15:14:25.716Z,29.00
2019-03-22T15:17:23.986Z,29.07
2019-03-22T15:20:23.465Z,27.33
2019-03-22T15:23:15.593Z,30.30
2019-03-22T15:26:18.567Z,28.67
2019-03-22T15:29:26.700Z,27.80
2019-03-22T15:32:35.171Z,29.20
2019-03-22T15:35:33.314Z,28.97
2019-03-22T15:38:29.738Z,29.60
2019-03-22T15:41:05.481Z,30.33
2019-03-22T15:43:40.228Z,27.73
2019-03-22T15:46:14.939Z,28.03
2019-03-22T15:48:49.888Z,27.43
2019-03-22T15:51:24.603Z,29.77
2019-03-22T15:53:59.038Z,27.97
2019-03-22T15:56:33.755Z,28.70
2019-03-22T15:59:08.517Z,29.20
2019-03-22T16:01:44.552Z,31.27
2019-03-22T16:04:19.084Z,30.63
2019-03-22T16:06:54.102Z,32.93
2019-03-22T16:09:28.671Z,30.70
2019-03-22T16:12:04.488Z,32.47
2019-03-22T16:14:40.451Z,32.70
2019-03-22T16:17:15.086Z,34.90
2019-03-22T16:19:49.607Z,34.70
2019-03-22T16:22:24.164Z,34.57
2019-03-22T16:24:58.868Z,36.70
2019-03-22T16:27:33.888Z,40.03
2019-03-22T16:30:09.304Z,40.57
2019-03-22T16:32:44.378Z,39.37
2019-03-22T16:35:19.187Z,37.87
2019-03-22T16:37:55.276Z,38.73
2019-03-22T16:40:30.206Z,38.00
2019-03-22T16:43:04.846Z,40.80
2019-03-22T16:45:41.906Z,38.03
2019-03-22T16:48:16.629Z,41.50
2019-03-22T16:50:52.692Z,40.90
2019-03-22T16:53:27.362Z,39.30
2019-03-22T16:56:02.230Z,40.90
2019-03-22T16:58:38.317Z,43.17
2019-03-22T17:01:12.959Z,43.17
2019-03-22T17:03:47.566Z,42.30
2019-03-22T17:06:22.533Z,42.47
2019-03-22T17:09:00.908Z,41.00
2019-03-22T17:11:35.526Z,41.80
2019-03-22T17:14:11.289Z,41.23
2019-03-22T17:16:46.527Z,41.97
2019-03-22T17:19:21.105Z,52.17
2019-03-22T17:21:55.751Z,43.57
2019-03-22T17:24:30.748Z,42.27
2019-03-22T17:27:05.224Z,40.10
2019-03-22T17:29:39.984Z,41.30
2019-03-22T17:32:15.053Z,41.80
2019-03-22T17:34:49.884Z,41.93
2019-03-22T17:37:26.074Z,40.07
2019-03-22T17:40:01.079Z,42.13
2019-03-22T17:42:37.107Z,40.20
2019-03-22T17:45:12.573Z,41.17
2019-03-22T17:47:47.145Z,41.30
2019-03-22T17:50:22.094Z,41.47
2019-03-22T17:52:58.110Z,43.83
2019-03-22T17:55:32.904Z,40.73
2019-03-22T17:58:07.520Z,42.13
2019-03-22T18:00:45.053Z,42.73
2019-03-22T18:03:21.019Z,49.10
2019-03-22T18:05:56.992Z,56.60
2019-03-22T18:08:31.671Z,56.23
2019-03-22T18:11:06.977Z,49.33
2019-03-22T18:13:41.621Z,40.07
2019-03-22T18:16:16.234Z,38.80
2019-03-22T18:18:52.783Z,44.07
2019-03-22T18:21:28.034Z,42.40
2019-03-22T18:24:02.984Z,42.63
2019-03-22T18:26:38.173Z,43.47
2019-03-22T18:29:13.091Z,40.70
2019-03-22T18:31:47.973Z,40.27
2019-03-22T18:34:33.766Z,40.70
2019-03-22T18:40:51.802Z,40.17
2019-03-22T18:43:26.377Z,39.53
2019-03-22T18:46:01.568Z,40.20
2019-03-22T18:48:36.212Z,41.03
2019-03-22T18:51:11.266Z,41.40
2019-03-22T18:53:46.050Z,41.57
2019-03-22T18:56:21.526Z,40.30
2019-03-22T18:58:56.230Z,41.07
2019-03-22T19:01:30.969Z,42.63
2019-03-22T19:04:05.536Z,42.30
2019-03-22T19:06:40.387Z,41.97
2019-03-22T19:09:15.088Z,40.67
2019-03-22T19:11:51.301Z,41.27
2019-03-22T19:14:27.126Z,42.33
2019-03-22T19:17:02.465Z,42.53
2019-03-22T19:19:37.579Z,42.03
2019-03-22T19:22:12.770Z,44.53
2019-03-22T19:24:47.726Z,41.97
2019-03-22T19:27:22.552Z,42.10
2019-03-22T19:29:57.592Z,42.07
2019-03-22T19:32:32.728Z,43.57
2019-03-22T19:35:09.002Z,43.53
2019-03-22T19:37:43.542Z,43.50
2019-03-22T19:40:18.384Z,42.53
2019-03-22T19:42:57.832Z,45.23
2019-03-22T19:45:33.508Z,45.67
2019-03-22T19:48:08.195Z,44.63
2019-03-22T19:50:42.867Z,44.00
2019-03-22T19:53:17.966Z,44.60
2019-03-22T19:55:53.127Z,44.90
2019-03-22T19:58:36.448Z,44.20
2019-03-22T20:01:11.627Z,45.00
2019-03-22T20:03:47.259Z,45.90
2019-03-22T20:06:23.116Z,45.87
2019-03-22T20:08:58.584Z,47.03
2019-03-22T20:11:33.348Z,45.20
2019-03-22T20:14:08.130Z,46.73
2019-03-22T20:16:44.337Z,45.97
2019-03-22T20:19:20.335Z,44.20
2019-03-22T20:21:56.334Z,46.10
2019-03-22T20:24:33.398Z,45.60
2019-03-22T20:27:09.458Z,46.13
2019-03-22T20:29:44.437Z,45.50
2019-03-22T20:32:20.968Z,44.17
2019-03-22T20:34:55.828Z,43.97
2019-03-22T20:37:30.439Z,45.53
2019-03-22T20:40:07.119Z,45.23
2019-03-22T20:42:45.594Z,45.50
2019-03-22T20:45:24.393Z,44.13
2019-03-22T20:47:59.494Z,46.00
2019-03-22T20:50:36.119Z,44.60
2019-03-22T20:53:10.022Z,47.10
2019-03-22T20:55:46.389Z,45.57
2019-03-22T20:58:21.456Z,45.30
2019-03-22T21:00:58.526Z,45.53
2019-03-22T21:03:34.702Z,44.30
2019-03-22T21:06:09.256Z,45.53
2019-03-22T21:08:44.479Z,44.17
2019-03-22T21:11:20.200Z,44.93
2019-03-22T21:13:55.252Z,45.97
2019-03-22T21:16:30.264Z,42.33
2019-03-22T21:19:05.167Z,42.50
2019-03-22T21:21:39.938Z,42.97
2019-03-22T21:24:16.436Z,45.80
2019-03-22T21:26:51.426Z,43.57
2019-03-22T21:29:26.087Z,44.60
2019-03-22T21:32:02.653Z,42.37
2019-03-22T21:34:37.288Z,43.93
2019-03-22T21:37:12.409Z,44.57
2019-03-22T21:39:47.591Z,42.30
2019-03-22T21:42:24.043Z,41.77
2019-03-22T21:45:00.611Z,42.47
2019-03-22T21:47:35.317Z,43.23
2019-03-22T21:50:10.147Z,42.17
2019-03-22T21:52:44.878Z,42.20
2019-03-22T21:55:19.388Z,44.40
2019-03-22T21:57:53.985Z,44.60
2019-03-22T22:00:28.677Z,46.67
2019-03-22T22:03:05.136Z,46.40
2019-03-22T22:05:47.448Z,43.93
2019-03-22T22:08:16.095Z,44.80
2019-03-22T22:10:59.323Z,42.93
2019-03-22T22:13:27.266Z,47.20
2019-03-22T22:16:03.807Z,44.30
2019-03-22T22:18:38.601Z,43.93
2019-03-22T22:21:13.305Z,45.03
2019-03-22T22:23:47.916Z,45.20
2019-03-22T22:26:22.497Z,45.23
2019-03-22T22:29:00.710Z,44.23
2019-03-22T22:31:37.053Z,45.33
2019-03-22T22:34:11.698Z,44.40
2019-03-22T22:36:46.247Z,44.97
2019-03-22T22:39:20.980Z,46.67
2019-03-22T22:41:55.639Z,46.50
2019-03-22T22:44:31.639Z,45.27
2019-03-22T22:47:06.312Z,47.27
2019-03-22T22:49:40.750Z,46.63
2019-03-22T22:52:15.312Z,45.40
2019-03-22T22:54:49.825Z,45.90
2019-03-22T22:57:24.473Z,47.37
2019-03-22T22:59:59.378Z,47.53
2019-03-22T23:02:34.032Z,46.20
2019-03-22T23:05:08.795Z,47.37
2019-03-22T23:07:43.581Z,47.47
2019-03-22T23:10:20.989Z,45.90
2019-03-22T23:12:55.823Z,47.23
2019-03-22T23:15:30.313Z,50.13
2019-03-22T23:18:06.797Z,47.60
2019-03-22T23:20:43.162Z,47.77
2019-03-22T23:23:18.135Z,47.77
2019-03-22T23:25:52.927Z,46.13
2019-03-22T23:28:28.011Z,44.57
2019-03-22T23:31:02.429Z,47.20
2019-03-22T23:33:37.827Z,46.17
2019-03-22T23:36:20.182Z,48.93
2019-03-22T23:38:48.856Z,46.23
2019-03-22T23:41:24.807Z,46.83
2019-03-22T23:43:59.464Z,46.67
2019-03-22T23:46:33.983Z,47.33
2019-03-22T23:49:08.566Z,47.53
2019-03-22T23:51:43.288Z,48.10
2019-03-22T23:54:17.909Z,48.60
2019-03-22T23:56:52.652Z,49.73
2019-03-22T23:59:27.308Z,47.70
